| time (UTC) | temp F | wind direction | speed MPH | gust MPH | rain 1hr in | rain 24hr in | rain mn in | humidity % | barometer mb |
| 20260906103016 | 71 | 264 | 0.0 | 0.0 | 0.00 | 0.15 | 0.00 | 98 | 1012.2 |
| 20260906101511 | 71 | 264 | 0.0 | 0.0 | 0.00 | 0.15 | 0.00 | 98 | 1011.9 |
| 20260906100008 | 71 | 264 | 0.0 | 0.0 | 0.00 | 0.15 | 0.00 | 98 | 1011.9 |
| 20260906094503 | 71 | 264 | 0.0 | 0.0 | 0.00 | 0.15 | 0.00 | 98 | 1011.6 |
| 20260906093100 | 71 | 264 | 0.0 | 0.0 | 0.00 | 0.15 | 0.00 | 98 | 1011.4 |
| 20260906091555 | 71 | 264 | 0.0 | 1.0 | 0.00 | 0.15 | 0.00 | 98 | 1011.4 |
| 20260906090049 | 71 | 261 | 0.0 | 0.0 | 0.00 | 0.15 | 0.00 | 98 | 1011.2 |
| 20260906084552 | 71 | 261 | 0.0 | 1.0 | 0.00 | 0.15 | 0.00 | 98 | 1010.9 |
| 20260906083145 | 70 | 261 | 0.0 | 1.0 | 0.00 | 0.15 | 0.00 | 98 | 1010.9 |
| 20260906081546 | 70 | 261 | 0.0 | 0.0 | 0.00 | 0.15 | 0.00 | 98 | 1010.9 |
| 20260906080053 | 69 | 261 | 0.0 | 0.0 | 0.00 | 0.15 | 0.00 | 98 | 1010.9 |
| 20260906074544 | 69 | 261 | 0.0 | 0.0 | 0.00 | 0.15 | 0.00 | 98 | 1010.8 |
| 20260906073043 | 69 | 261 | 0.0 | 0.0 | 0.00 | 0.15 | 0.00 | 98 | 1010.6 |
| 20260906071541 | 69 | 261 | 0.0 | 1.0 | 0.00 | 0.15 | 0.00 | 98 | 1010.5 |
| 20260906070040 | 69 | 261 | 0.0 | 0.0 | 0.00 | 0.15 | 0.00 | 98 | 1010.6 |
| 20260906064539 | 69 | 261 | 0.0 | 0.0 | 0.00 | 0.15 | 0.00 | 97 | 1010.7 |
| 20260906063038 | 69 | 261 | 0.0 | 0.0 | 0.00 | 0.15 | 0.00 | 97 | 1011.0 |
| 20260906061539 | 69 | 261 | 0.0 | 0.0 | 0.00 | 0.15 | 0.00 | 98 | 1011.0 |
| 20260906060037 | 69 | 261 | 0.0 | 0.0 | 0.00 | 0.15 | 0.00 | 98 | 1010.9 |
| 20260906054533 | 69 | 261 | 0.0 | 0.0 | 0.00 | 0.17 | 0.00 | 97 | 1011.0 |
| 20260906053031 | 70 | 261 | 0.0 | 0.0 | 0.00 | 0.17 | 0.00 | 97 | 1011.2 |
| 20260906051529 | 70 | 261 | 0.0 | 0.0 | 0.00 | 0.17 | 0.00 | 97 | 1011.3 |
| 20260906050029 | 70 | 262 | 0.0 | 0.0 | 0.00 | 0.17 | 0.00 | 97 | 1011.4 |
| 20260906044527 | 70 | 262 | 0.0 | 0.0 | 0.00 | 0.17 | 0.00 | 97 | 1011.5 |
| 20260906043025 | 70 | 262 | 0.0 | 0.0 | 0.00 | 0.17 | 0.00 | 97 | 1011.7 |
| 20260906041535 | 70 | 262 | 0.0 | 0.0 | 0.00 | 0.17 | 0.00 | 97 | 1011.8 |
| 20260906040022 | 71 | 262 | 0.0 | 0.0 | 0.00 | 0.17 | 0.00 | 97 | 1011.9 |
| 20260906034526 | 71 | 262 | 0.0 | 0.0 | 0.00 | 0.17 | 0.17 | 97 | 1011.8 |
| 20260906033020 | 71 | 262 | 0.0 | 0.0 | 0.00 | 0.17 | 0.17 | 97 | 1011.8 |
| 20260906031519 | 71 | 262 | 0.0 | 0.0 | 0.00 | 0.17 | 0.17 | 97 | 1011.8 |
| 20260906030019 | 71 | 262 | 0.0 | 0.0 | 0.00 | 0.17 | 0.17 | 96 | 1011.8 |
| 20260906024519 | 71 | 262 | 0.0 | 0.0 | 0.00 | 0.17 | 0.17 | 97 | 1011.5 |
| 20260906023019 | 71 | 263 | 0.0 | 0.0 | 0.00 | 0.17 | 0.17 | 97 | 1011.6 |
| 20260906021518 | 71 | 263 | 0.0 | 0.0 | 0.00 | 0.17 | 0.17 | 96 | 1011.4 |
| 20260906020018 | 71 | 263 | 0.0 | 0.0 | 0.00 | 0.17 | 0.17 | 96 | 1011.3 |
| 20260906014522 | 72 | 263 | 0.0 | 0.0 | 0.00 | 0.17 | 0.17 | 95 | 1011.3 |
| 20260906013017 | 72 | 263 | 0.0 | 0.0 | 0.00 | 0.17 | 0.17 | 95 | 1011.2 |
| 20260906011516 | 72 | 263 | 0.0 | 0.0 | 0.00 | 0.17 | 0.17 | 95 | 1010.9 |
| 20260906010016 | 72 | 263 | 0.0 | 0.0 | 0.00 | 0.17 | 0.17 | 95 | 1010.7 |
| 20260906004516 | 73 | 263 | 0.0 | 0.0 | 0.00 | 0.17 | 0.17 | 94 | 1010.6 |
| 20260906003015 | 73 | 263 | 0.0 | 0.0 | 0.00 | 0.17 | 0.17 | 93 | 1010.5 |
| 20260906001514 | 74 | 263 | 0.0 | 0.0 | 0.00 | 0.17 | 0.17 | 92 | 1010.3 |
| 20260906000014 | 75 | 263 | 0.0 | 0.0 | 0.00 | 0.17 | 0.17 | 91 | 1010.2 |
| 20260905234514 | 75 | 263 | 0.0 | 0.0 | 0.00 | 0.19 | 0.17 | 89 | 1010.2 |
| 20260905233013 | 76 | 263 | 0.0 | 0.0 | 0.00 | 0.19 | 0.17 | 88 | 1010.0 |
| 20260905231513 | 76 | 263 | 0.0 | 3.0 | 0.00 | 0.19 | 0.17 | 87 | 1010.1 |
| 20260905230012 | 77 | 263 | 0.0 | 2.0 | 0.00 | 0.19 | 0.17 | 86 | 1009.7 |
| 20260905224518 | 78 | 263 | 0.0 | 3.0 | 0.00 | 0.40 | 0.17 | 85 | 1009.5 |
| 20260905223011 | 79 | 172 | 0.0 | 2.0 | 0.00 | 0.40 | 0.17 | 87 | 1009.7 |
| 20260905221528 | 79 | 172 | 0.0 | 1.0 | 0.00 | 0.40 | 0.17 | 87 | 1010.1 |
| 20260905220010 | 78 | 172 | 0.0 | 4.0 | 0.00 | 0.40 | 0.17 | 88 | 1010.2 |
| 20260905214512 | 77 | 166 | 0.0 | 5.0 | 0.00 | 0.40 | 0.17 | 90 | 1010.1 |
| 20260905213009 | 75 | 159 | 0.0 | 1.0 | 0.00 | 0.40 | 0.17 | 95 | 1010.3 |
| 20260905211509 | 74 | 132 | 0.0 | 0.0 | 0.00 | 0.40 | 0.17 | 97 | 1010.3 |
| 20260905210009 | 74 | 132 | 0.0 | 1.0 | 0.00 | 0.40 | 0.17 | 96 | 1010.3 |
| 20260905204508 | 73 | 132 | 0.0 | 0.0 | 0.00 | 0.40 | 0.17 | 96 | 1010.3 |
| 20260905203008 | 73 | 132 | 0.0 | 0.0 | 0.00 | 0.40 | 0.17 | 95 | 1010.4 |
| 20260905201513 | 73 | 132 | 0.0 | 1.0 | 0.00 | 0.40 | 0.17 | 95 | 1009.9 |
| 20260905200007 | 73 | 132 | 0.0 | 1.0 | 0.15 | 0.40 | 0.17 | 94 | 1009.6 |
| 20260905194507 | 73 | 34 | 0.0 | 2.0 | 0.15 | 0.40 | 0.17 | 93 | 1010.1 |
| 20260905193010 | 73 | 16 | 0.0 | 1.0 | 0.15 | 0.40 | 0.17 | 90 | 1010.3 |
| 20260905191505 | 76 | 75 | 0.0 | 10.0 | 0.15 | 0.40 | 0.17 | 84 | 1009.9 |
| 20260905190004 | 85 | 19 | 2.0 | 9.0 | 0.00 | 0.25 | 0.02 | 70 | 1010.4 |
| 20260905184502 | 90 | 286 | 0.0 | 1.0 | 0.00 | 0.25 | 0.02 | 66 | 1009.6 |
| 20260905183101 | 92 | 286 | 0.0 | 2.0 | 0.00 | 0.25 | 0.02 | 62 | 1009.9 |
| 20260905181559 | 93 | 286 | 0.0 | 2.0 | 0.00 | 0.25 | 0.02 | 58 | 1010.0 |
| 20260905180057 | 93 | 286 | 0.0 | 2.0 | 0.00 | 0.25 | 0.02 | 57 | 1010.3 |
| 20260905174558 | 93 | 217 | 0.0 | 1.0 | 0.00 | 0.25 | 0.02 | 60 | 1010.7 |
| 20260905173050 | 92 | 32 | 0.0 | 2.0 | 0.00 | 0.25 | 0.02 | 63 | 1011.2 |
| 20260905171548 | 93 | 61 | 0.0 | 3.0 | 0.00 | 0.25 | 0.02 | 65 | 1011.4 |
| 20260905170047 | 93 | 246 | 0.0 | 2.0 | 0.00 | 0.25 | 0.02 | 66 | 1011.5 |
| 20260905164546 | 92 | 246 | 0.0 | 4.0 | 0.00 | 0.25 | 0.02 | 64 | 1011.6 |
| 20260905163040 | 91 | 70 | 0.0 | 3.0 | 0.00 | 0.25 | 0.02 | 63 | 1011.8 |
| 20260905161537 | 90 | 140 | 0.0 | 3.0 | 0.00 | 0.25 | 0.02 | 69 | 1012.0 |
| 20260905160035 | 89 | 207 | 0.0 | 4.0 | 0.00 | 0.25 | 0.02 | 70 | 1012.1 |
| 20260905154531 | 89 | 234 | 2.0 | 4.0 | 0.00 | 0.25 | 0.02 | 69 | 1012.2 |
| 20260905153029 | 88 | 239 | 1.0 | 4.0 | 0.00 | 0.25 | 0.02 | 70 | 1012.3 |
| 20260905151525 | 87 | 197 | 0.0 | 3.0 | 0.00 | 0.25 | 0.02 | 72 | 1012.5 |
| 20260905150022 | 85 | 274 | 0.0 | 3.0 | 0.00 | 0.25 | 0.02 | 77 | 1012.4 |
| 20260905144520 | 84 | 257 | 1.0 | 4.0 | 0.00 | 0.25 | 0.02 | 77 | 1012.4 |
| 20260905143021 | 83 | 162 | 0.0 | 5.0 | 0.00 | 0.25 | 0.02 | 79 | 1012.5 |
| 20260905141511 | 82 | 247 | 0.0 | 5.0 | 0.00 | 0.25 | 0.02 | 79 | 1012.4 |
| 20260905140008 | 81 | 248 | 0.0 | 3.0 | 0.00 | 0.25 | 0.02 | 83 | 1012.3 |
| 20260905134504 | 79 | 159 | 0.0 | 5.0 | 0.00 | 0.25 | 0.02 | 86 | 1012.4 |
| 20260905133059 | 76 | 227 | 0.0 | 4.0 | 0.00 | 0.25 | 0.02 | 92 | 1012.3 |
| 20260905131612 | 75 | 189 | 1.0 | 4.0 | 0.00 | 0.25 | 0.02 | 96 | 1012.5 |
| 20260905130050 | 73 | 153 | 0.0 | 2.0 | 0.00 | 0.25 | 0.02 | 98 | 1012.5 |
| 20260905124551 | 73 | 184 | 0.0 | 1.0 | 0.00 | 0.25 | 0.02 | 99 | 1012.5 |
| 20260905123053 | 72 | 136 | 0.0 | 0.0 | 0.00 | 0.25 | 0.02 | 99 | 1012.7 |
| 20260905121539 | 71 | 136 | 0.0 | 0.0 | 0.00 | 0.25 | 0.02 | 98 | 1012.5 |
| 20260905120038 | 71 | 136 | 0.0 | 0.0 | 0.00 | 0.25 | 0.02 | 98 | 1012.6 |
| 20260905114544 | 70 | 136 | 0.0 | 0.0 | 0.00 | 0.25 | 0.02 | 98 | 1012.4 |
| 20260905113041 | 70 | 136 | 0.0 | 0.0 | 0.00 | 0.25 | 0.02 | 98 | 1012.2 |
| 20260905111547 | 70 | 136 | 0.0 | 1.0 | 0.00 | 0.25 | 0.02 | 98 | 1012.1 |
| 20260905110036 | 70 | 57 | 0.0 | 0.0 | 0.00 | 0.25 | 0.02 | 98 | 1011.8 |
| 20260905104535 | 70 | 57 | 0.0 | 0.0 | 0.00 | 0.25 | 0.02 | 98 | 1011.7 |